Lakeview AWS, OR

1:22 AM PDT on September 22, 2017 (GMT -0700)
Lake County

Weather History for KLKV - October, 2012

Change the Weather History Date:

Tuesday, October 16, 2012

  Actual Average Record
Temperature  
Mean Temperature 50 °F -  
Max Temperature 62 °F 62 °F 81 °F (1974)
Min Temperature 37 °F 30 °F 15 °F (1996)
Degree Days  
Heating Degree Days 14    
Moisture  
Dew Point 41 °F    
Average Humidity 66    
Maximum Humidity 94    
Minimum Humidity 24    
Precipitation  
Precipitation 0.00 in - - ()
Sea Level Pressure  
Sea Level Pressure 30.08 in    
Wind  
Wind Speed 12 mph (West)    
Max Wind Speed 20 mph    
Max Gust Speed 29 mph    
Visibility 10 miles    
Events      
Averages and records for this station are not official NWS values.
T = Trace of Precipitation, MM = Missing Value Source: NWS Daily Summary

Daily Weather History Graph

Daily Weather History Graph

Search for Another Location

Airport or City:

Trip Planner

Search our weather history database for the weather conditions in past years. The results will help you decide how hot, cold, wet, or windy it might be!

Date:

Astronomy

Oct. 16, 2012 Rise Set
Actual Time 7:16 AM PDT 6:17 PM PDT
Civil Twilight 6:47 AM PDT 6:45 PM PDT
Nautical Twilight 6:15 AM PDT 7:17 PM PDT
Astronomical Twilight 5:42 AM PDT 7:50 PM PDT
Moon 8:47 AM PDT (10/16) 7:03 PM PDT (10/16)
Length of Visible Light 11h 57m
Length of Day
11h 01m
New Moon, 2% of the Moon is Illuminated
Oct 16
New Moon
Oct 21
First Quarter
Oct 29
Full
Nov 6
Last Quarter
Nov 13
New

Hourly Weather History & Observations

Time (PDT) Temp. Windchill Dew Point Humidity Pressure Visibility Wind Dir Wind Speed Gust Speed Precip Events Conditions
12:15 AM 55.4 °F - 51.8 °F 88% 30.02 in 10.0 mi SE 11.5 mph - N/A   Overcast
12:35 AM 55.4 °F - 51.8 °F 88% 30.01 in 10.0 mi SSE 11.5 mph - N/A   Overcast
12:55 AM 55.4 °F - 51.8 °F 88% 30.01 in 10.0 mi SSE 9.2 mph - N/A   Overcast
1:15 AM 55.4 °F - 51.8 °F 88% 30.02 in 10.0 mi South 12.7 mph - N/A   Overcast
1:35 AM 55.4 °F - 51.8 °F 88% 30.01 in 10.0 mi South 10.4 mph - N/A   Overcast
1:55 AM 55.4 °F - 51.8 °F 88% 30.01 in 10.0 mi South 11.5 mph - N/A   Overcast
2:15 AM 55.4 °F - 51.8 °F 88% 30.01 in 10.0 mi South 11.5 mph - N/A   Overcast
2:35 AM 55.4 °F - 51.8 °F 88% 30.01 in 10.0 mi South 11.5 mph 17.3 mph N/A   Overcast
2:55 AM 55.4 °F - 51.8 °F 88% 30.00 in 10.0 mi South 10.4 mph - N/A   Overcast
3:15 AM 55.4 °F - 51.8 °F 88% 30.00 in 10.0 mi South 10.4 mph - N/A   Overcast
3:35 AM 55.4 °F - 53.6 °F 94% 29.99 in 10.0 mi South 11.5 mph - N/A   Overcast
3:55 AM 55.4 °F - 51.8 °F 88% 29.99 in 10.0 mi South 12.7 mph - N/A   Overcast
4:35 AM 55.4 °F - 53.6 °F 94% 29.98 in 9.0 mi South 15.0 mph - N/A   Overcast
5:15 AM 55.4 °F - 53.6 °F 94% 29.98 in 9.0 mi South 16.1 mph - N/A   Overcast
5:35 AM 55.4 °F - 53.6 °F 94% 29.97 in 10.0 mi South 11.5 mph - N/A   Overcast
5:55 AM 55.4 °F - 53.6 °F 94% 29.96 in 10.0 mi South 17.3 mph 21.9 mph N/A   Overcast
6:15 AM 55.4 °F - 53.6 °F 94% 29.96 in 10.0 mi South 18.4 mph - N/A   Mostly Cloudy
6:35 AM 55.4 °F - 53.6 °F 94% 29.98 in 10.0 mi South 13.8 mph - N/A   Mostly Cloudy
6:55 AM 55.4 °F - 53.6 °F 94% 29.99 in 8.0 mi South 13.8 mph 18.4 mph N/A   Overcast
7:15 AM 55.4 °F - 53.6 °F 94% 30.00 in 10.0 mi SSW 12.7 mph 16.1 mph N/A   Overcast
7:35 AM 55.4 °F - 53.6 °F 94% 30.00 in 7.0 mi WSW 10.4 mph 17.3 mph N/A   Overcast
7:55 AM 55.4 °F - 53.6 °F 94% 30.00 in 3.0 mi WSW 12.7 mph - N/A   Overcast
8:15 AM 55.4 °F - 53.6 °F 94% 30.01 in 5.0 mi WSW 8.1 mph - N/A   Mostly Cloudy
8:35 AM 55.4 °F - 53.6 °F 94% 30.01 in 10.0 mi SW 6.9 mph - N/A   Mostly Cloudy
8:55 AM 55.4 °F - 51.8 °F 88% 30.03 in 10.0 mi West 10.4 mph - N/A   Scattered Clouds
9:15 AM 55.4 °F - 51.8 °F 88% 30.03 in 10.0 mi West 9.2 mph - N/A   Scattered Clouds
9:35 AM 57.2 °F - 51.8 °F 82% 30.04 in 10.0 mi WSW 16.1 mph 20.7 mph N/A   Clear
9:55 AM 59.0 °F - 51.8 °F 77% 30.04 in 10.0 mi West 18.4 mph 25.3 mph N/A   Scattered Clouds
10:15 AM 59.0 °F - 50.0 °F 72% 30.06 in 10.0 mi West 16.1 mph 27.6 mph N/A   Mostly Cloudy
10:35 AM 59.0 °F - 48.2 °F 67% 30.06 in 10.0 mi WSW 18.4 mph 28.8 mph N/A   Partly Cloudy
10:55 AM 60.8 °F - 48.2 °F 63% 30.07 in 10.0 mi West 18.4 mph 24.2 mph N/A   Clear
11:15 AM 60.8 °F - 46.4 °F 59% 30.08 in 10.0 mi WNW 16.1 mph 27.6 mph N/A   Mostly Cloudy
11:35 AM 60.8 °F - 46.4 °F 59% 30.09 in 10.0 mi WNW 11.5 mph - N/A   Mostly Cloudy
11:55 AM 60.8 °F - 44.6 °F 55% 30.09 in 10.0 mi West 15.0 mph 19.6 mph N/A   Scattered Clouds
12:15 PM 62.6 °F - 44.6 °F 52% 30.09 in 10.0 mi West 15.0 mph 20.7 mph N/A   Mostly Cloudy
12:35 PM 62.6 °F - 44.6 °F 52% 30.09 in 10.0 mi West 17.3 mph 21.9 mph N/A   Mostly Cloudy
1:15 PM 62.6 °F - 42.8 °F 48% 30.09 in 10.0 mi West 19.6 mph - N/A   Partly Cloudy
1:35 PM 62.6 °F - 41.0 °F 45% 30.09 in 10.0 mi West 15.0 mph - N/A   Partly Cloudy
1:55 PM 62.6 °F - 39.2 °F 42% 30.09 in 10.0 mi WNW 12.7 mph 18.4 mph N/A   Clear
2:15 PM 62.6 °F - 30.2 °F 30% 30.09 in 10.0 mi West 16.1 mph 20.7 mph N/A   Clear
2:35 PM 62.6 °F - 30.2 °F 30% 30.10 in 10.0 mi West 13.8 mph 23.0 mph N/A   Clear
2:55 PM 62.6 °F - 28.4 °F 27% 30.10 in 10.0 mi West 15.0 mph 23.0 mph N/A   Clear
3:15 PM 62.6 °F - 28.4 °F 27% 30.10 in 10.0 mi West 13.8 mph 23.0 mph N/A   Clear
3:35 PM 62.6 °F - 24.8 °F 24% 30.10 in 10.0 mi West 11.5 mph - N/A   Clear
3:55 PM 62.6 °F - 24.8 °F 24% 30.11 in 10.0 mi WNW 12.7 mph 20.7 mph N/A   Clear
4:15 PM 60.8 °F - 26.6 °F 27% 30.11 in 10.0 mi West 13.8 mph - N/A   Clear
4:35 PM 60.8 °F - 28.4 °F 29% 30.11 in 10.0 mi WNW 12.7 mph - N/A   Clear
4:55 PM 60.8 °F - 28.4 °F 29% 30.11 in 10.0 mi West 10.4 mph - N/A   Clear
5:15 PM 59.0 °F - 28.4 °F 31% 30.11 in 10.0 mi WNW 10.4 mph - N/A   Clear
5:35 PM 57.2 °F - 28.4 °F 33% 30.12 in 10.0 mi West 10.4 mph - N/A   Clear
5:55 PM 55.4 °F - 30.2 °F 38% 30.13 in 10.0 mi WNW 8.1 mph - N/A   Clear
6:15 PM 51.8 °F - 28.4 °F 41% 30.13 in 10.0 mi NNW 8.1 mph - N/A   Clear
6:35 PM 51.8 °F - 28.4 °F 41% 30.14 in 10.0 mi NW 8.1 mph - N/A   Clear
6:55 PM 46.4 °F 42.9 °F 28.4 °F 50% 30.15 in 10.0 mi NNW 6.9 mph - N/A   Clear
7:15 PM 44.6 °F 39.7 °F 26.6 °F 49% 30.16 in 10.0 mi NNW 9.2 mph - N/A   Clear
7:35 PM 42.8 °F 37.0 °F 26.6 °F 53% 30.17 in 10.0 mi North 10.4 mph - N/A   Clear
7:55 PM 42.8 °F 37.0 °F 26.6 °F 53% 30.17 in 10.0 mi NNW 10.4 mph - N/A   Clear
8:15 PM 39.2 °F 33.0 °F 26.6 °F 61% 30.18 in 10.0 mi North 9.2 mph - N/A   Clear
8:35 PM 39.2 °F 32.5 °F 28.4 °F 65% 30.18 in 10.0 mi NNW 10.4 mph - N/A   Clear
8:55 PM 39.2 °F 33.0 °F 28.4 °F 65% 30.20 in 10.0 mi North 9.2 mph - N/A   Clear
9:15 PM 39.2 °F 32.5 °F 28.4 °F 65% 30.20 in 10.0 mi North 10.4 mph - N/A   Clear
9:35 PM 39.2 °F 33.0 °F 28.4 °F 65% 30.21 in 10.0 mi North 9.2 mph - N/A   Clear
9:55 PM 41.0 °F 33.9 °F 28.4 °F 61% 30.22 in 10.0 mi North 12.7 mph - N/A   Clear
10:15 PM 39.2 °F 32.0 °F 28.4 °F 65% 30.22 in 10.0 mi NNW 11.5 mph - N/A   Clear
10:35 PM 39.2 °F 30.8 °F 28.4 °F 65% 30.22 in 10.0 mi North 15.0 mph - N/A   Clear
10:55 PM 39.2 °F 30.5 °F 30.2 °F 70% 30.22 in 10.0 mi North 16.1 mph 19.6 mph N/A   Clear
11:15 PM 39.2 °F 31.6 °F 30.2 °F 70% 30.23 in 10.0 mi North 12.7 mph - N/A   Clear
11:35 PM 39.2 °F 31.2 °F 30.2 °F 70% 30.23 in 10.0 mi North 13.8 mph 19.6 mph N/A   Clear
11:55 PM 37.4 °F 28.5 °F 30.2 °F 75% 30.23 in 10.0 mi North 15.0 mph - N/A   Clear